createdAt,value
2018-05-08T00:01:01.166Z,3.30
2018-05-08T00:03:27.613Z,2.70
2018-05-08T00:05:54.006Z,3.30
2018-05-08T00:08:20.459Z,2.90
2018-05-08T00:10:46.806Z,2.80
2018-05-08T00:13:13.111Z,3.20
2018-05-08T00:15:39.489Z,2.60
2018-05-08T00:18:05.836Z,2.83
2018-05-08T00:20:32.123Z,2.43
2018-05-08T00:22:58.482Z,2.60
2018-05-08T00:25:25.523Z,2.83
2018-05-08T00:27:51.894Z,2.50
2018-05-08T00:30:18.198Z,2.80
2018-05-08T00:32:44.532Z,2.80
2018-05-08T00:35:10.826Z,2.50
2018-05-08T00:37:38.655Z,2.87
2018-05-08T00:40:04.993Z,2.40
2018-05-08T00:42:31.301Z,2.53
2018-05-08T00:44:57.655Z,2.67
2018-05-08T00:47:23.961Z,2.70
2018-05-08T00:49:50.286Z,2.80
2018-05-08T00:52:16.593Z,2.83
2018-05-08T00:57:43.114Z,2.70
2018-05-08T01:00:09.841Z,2.40
2018-05-08T01:02:36.258Z,2.50
2018-05-08T01:05:02.727Z,2.40
2018-05-08T01:07:29.401Z,2.63
2018-05-08T01:09:56.954Z,2.50
2018-05-08T01:12:23.272Z,2.67
2018-05-08T01:14:49.657Z,2.70
2018-05-08T01:17:16.011Z,2.60
2018-05-08T01:19:42.324Z,2.60
2018-05-08T01:22:08.687Z,2.83
2018-05-08T01:24:35.037Z,3.20
2018-05-08T01:27:02.112Z,2.70
2018-05-08T01:29:28.501Z,2.67
2018-05-08T01:31:54.800Z,2.97
2018-05-08T01:34:21.115Z,2.67
2018-05-08T01:36:47.469Z,2.93
2018-05-08T01:39:13.827Z,2.47
2018-05-08T01:41:40.934Z,2.50
2018-05-08T01:44:07.248Z,2.80
2018-05-08T01:46:33.615Z,2.70
2018-05-08T01:48:59.985Z,3.00
2018-05-08T01:51:26.293Z,2.80
2018-05-08T01:53:53.414Z,3.23
2018-05-08T01:56:20.479Z,3.17
2018-05-08T01:58:48.014Z,3.00
2018-05-08T02:01:14.331Z,3.10
2018-05-08T02:03:40.750Z,2.90
2018-05-08T02:06:07.090Z,2.70
2018-05-08T02:08:33.461Z,3.27
2018-05-08T02:11:00.562Z,3.40
2018-05-08T02:13:26.900Z,3.07
2018-05-08T02:15:53.321Z,3.33
2018-05-08T02:18:19.673Z,3.47
2018-05-08T02:20:46.054Z,3.17
2018-05-08T02:23:13.094Z,3.23
2018-05-08T02:25:40.205Z,3.60
2018-05-08T02:28:06.520Z,3.80
2018-05-08T02:30:32.965Z,3.43
2018-05-08T02:32:59.285Z,3.10
2018-05-08T02:35:25.589Z,3.20
2018-05-08T02:37:51.953Z,3.30
2018-05-08T02:40:18.263Z,2.93
2018-05-08T02:42:44.614Z,3.30
2018-05-08T02:45:10.961Z,3.47
2018-05-08T02:47:37.315Z,4.10
2018-05-08T02:50:04.375Z,3.73
2018-05-08T02:52:31.426Z,3.27
2018-05-08T02:54:57.789Z,3.77
2018-05-08T02:57:24.100Z,3.73
2018-05-08T02:59:50.459Z,3.40
2018-05-08T03:02:16.807Z,3.77
2018-05-08T03:04:43.101Z,3.20
2018-05-08T03:07:09.450Z,3.80
2018-05-08T03:09:35.755Z,3.63
2018-05-08T03:12:02.131Z,3.53
2018-05-08T03:14:28.479Z,3.53
2018-05-08T03:16:55.536Z,4.17
2018-05-08T03:19:22.613Z,4.10
2018-05-08T03:21:48.912Z,4.47
2018-05-08T03:24:16.014Z,4.67
2018-05-08T03:26:42.344Z,4.23
2018-05-08T03:29:08.711Z,3.90
2018-05-08T03:31:35.766Z,3.67
2018-05-08T03:34:02.150Z,3.77
2018-05-08T03:36:28.449Z,4.07
2018-05-08T03:38:54.787Z,4.20
2018-05-08T03:41:21.129Z,4.00
2018-05-08T03:43:47.474Z,3.80
2018-05-08T03:46:13.818Z,3.93
2018-05-08T03:48:40.135Z,4.47
2018-05-08T03:51:06.532Z,4.60
2018-05-08T03:53:32.879Z,4.30
2018-05-08T03:55:59.191Z,4.23
2018-05-08T03:58:25.583Z,4.30
2018-05-08T04:01:04.113Z,4.43
2018-05-08T04:03:42.830Z,3.83
2018-05-08T04:09:31.080Z,4.40
2018-05-08T04:11:58.141Z,4.50
2018-05-08T04:14:25.269Z,4.03
2018-05-08T04:16:51.570Z,4.43
2018-05-08T04:19:17.934Z,4.40
2018-05-08T04:21:44.238Z,4.13
2018-05-08T04:24:10.600Z,4.40
2018-05-08T04:26:36.923Z,4.80
2018-05-08T04:29:04.759Z,4.60
2018-05-08T04:31:31.130Z,4.63
2018-05-08T04:33:58.189Z,4.30
2018-05-08T04:36:24.609Z,4.77
2018-05-08T04:38:50.961Z,4.20
2018-05-08T04:41:17.282Z,4.27
2018-05-08T04:43:44.357Z,4.77
2018-05-08T04:46:10.662Z,5.13
2018-05-08T04:48:37.010Z,4.53
2018-05-08T04:51:03.392Z,4.30
2018-05-08T04:53:29.762Z,4.50
2018-05-08T04:55:56.103Z,4.63
2018-05-08T04:58:22.446Z,4.70
2018-05-08T05:00:48.746Z,4.80
2018-05-08T05:03:15.129Z,4.47
2018-05-08T05:05:41.497Z,5.27
2018-05-08T05:08:08.564Z,5.43
2018-05-08T05:10:34.917Z,4.70
2018-05-08T05:13:02.266Z,4.70
2018-05-08T05:15:28.640Z,5.07
2018-05-08T05:17:54.981Z,5.23
2018-05-08T05:20:21.286Z,5.17
2018-05-08T05:22:47.626Z,5.00
2018-05-08T05:25:13.924Z,4.83
2018-05-08T05:27:40.265Z,5.03
2018-05-08T05:30:06.579Z,5.20
2018-05-08T05:32:32.932Z,4.80
2018-05-08T05:34:59.238Z,4.77
2018-05-08T05:37:25.542Z,4.87
2018-05-08T05:39:52.622Z,5.83
2018-05-08T05:42:18.978Z,5.53
2018-05-08T05:44:45.279Z,4.93
2018-05-08T05:47:11.582Z,5.77
2018-05-08T05:49:39.758Z,5.33
2018-05-08T05:52:06.788Z,4.80
2018-05-08T05:54:33.854Z,5.80
2018-05-08T05:57:00.205Z,5.70
2018-05-08T05:59:26.518Z,6.10
2018-05-08T06:01:52.899Z,5.80
2018-05-08T06:04:19.205Z,5.73
2018-05-08T06:06:45.551Z,5.63
2018-05-08T06:09:11.941Z,5.83
2018-05-08T06:11:38.312Z,6.13
2018-05-08T06:14:06.130Z,5.80
2018-05-08T06:16:33.266Z,7.00
2018-05-08T06:19:00.304Z,6.47
2018-05-08T06:21:27.403Z,6.97
2018-05-08T06:23:53.773Z,6.30
2018-05-08T06:26:20.833Z,6.17
2018-05-08T06:28:48.153Z,5.97
2018-05-08T06:31:14.469Z,7.17
2018-05-08T06:33:40.840Z,6.70
2018-05-08T06:36:07.892Z,5.97
2018-05-08T06:38:34.996Z,6.47
2018-05-08T06:41:01.340Z,6.37
2018-05-08T06:43:27.695Z,5.80
2018-05-08T06:45:54.015Z,6.27
2018-05-08T06:48:20.366Z,6.50
2018-05-08T06:50:46.675Z,7.33
2018-05-08T06:53:13.033Z,6.17
2018-05-08T06:55:40.113Z,5.80
2018-05-08T06:58:06.455Z,5.43
2018-05-08T07:00:32.858Z,5.27
2018-05-08T07:02:59.948Z,5.83
2018-05-08T07:05:26.242Z,6.30
2018-05-08T07:07:52.594Z,5.43
2018-05-08T07:10:18.946Z,5.50
2018-05-08T07:12:45.242Z,5.83
2018-05-08T07:15:11.602Z,5.80
2018-05-08T07:17:37.970Z,5.73
2018-05-08T07:20:05.075Z,4.93
2018-05-08T07:22:31.424Z,5.47
2018-05-08T07:24:57.786Z,4.83
2018-05-08T07:27:24.833Z,4.57
2018-05-08T07:29:51.906Z,5.40
2018-05-08T07:32:18.313Z,5.03
2018-05-08T07:34:45.354Z,5.70
2018-05-08T07:37:11.753Z,5.00
2018-05-08T07:39:38.122Z,6.07
2018-05-08T07:42:05.172Z,4.90
2018-05-08T07:44:31.531Z,5.00
2018-05-08T07:46:57.839Z,4.97
2018-05-08T07:49:24.933Z,4.60
2018-05-08T07:51:52.729Z,4.40
2018-05-08T07:54:19.817Z,4.43
2018-05-08T07:56:46.166Z,4.50
2018-05-08T07:59:12.470Z,3.73
2018-05-08T08:01:38.841Z,4.20
2018-05-08T08:04:05.161Z,4.03
2018-05-08T08:06:31.703Z,3.97
2018-05-08T08:08:58.019Z,4.60
2018-05-08T08:11:24.337Z,4.13
2018-05-08T08:13:50.685Z,4.13
2018-05-08T08:16:17.110Z,4.03
2018-05-08T08:18:43.457Z,3.50
2018-05-08T08:21:09.782Z,4.67
2018-05-08T08:23:36.132Z,3.70
2018-05-08T08:26:03.913Z,3.87
2018-05-08T08:28:31.128Z,3.03
2018-05-08T08:30:58.390Z,4.03
2018-05-08T08:33:24.697Z,3.67
2018-05-08T08:35:52.308Z,2.73
2018-05-08T08:38:19.390Z,3.70
2018-05-08T08:40:45.754Z,3.77
2018-05-08T08:43:12.096Z,3.67
2018-05-08T08:45:38.453Z,3.63
2018-05-08T08:48:05.508Z,3.83
2018-05-08T08:50:32.607Z,3.10
2018-05-08T08:52:58.921Z,3.30
2018-05-08T08:55:25.279Z,3.20
2018-05-08T08:57:51.628Z,3.53
2018-05-08T09:00:18.741Z,3.60
2018-05-08T09:02:45.032Z,3.27
2018-05-08T09:05:11.333Z,3.30
2018-05-08T09:07:37.688Z,3.40
2018-05-08T09:10:04.004Z,3.20
2018-05-08T09:12:30.375Z,3.10
2018-05-08T09:14:56.694Z,3.33
2018-05-08T09:17:23.076Z,3.13
2018-05-08T09:19:49.512Z,2.80
2018-05-08T09:22:15.812Z,3.03
2018-05-08T09:24:49.038Z,2.63
2018-05-08T09:27:15.393Z,3.50
2018-05-08T09:29:41.723Z,3.20
2018-05-08T09:32:11.109Z,3.30
2018-05-08T09:34:38.198Z,3.93
2018-05-08T09:37:05.047Z,3.50
2018-05-08T09:39:31.402Z,3.10
2018-05-08T09:41:57.742Z,3.60
2018-05-08T09:44:24.090Z,3.13
2018-05-08T09:46:51.128Z,3.40
2018-05-08T09:49:17.494Z,3.70
2018-05-08T09:51:43.803Z,3.50
2018-05-08T09:54:10.927Z,3.33
2018-05-08T09:56:37.229Z,3.73
2018-05-08T09:59:03.598Z,3.97
2018-05-08T10:01:30.728Z,3.70
2018-05-08T10:03:57.030Z,3.60
2018-05-08T10:06:23.326Z,3.80
2018-05-08T10:08:50.427Z,3.53
2018-05-08T10:11:16.743Z,3.93
2018-05-08T10:13:43.062Z,3.37
2018-05-08T10:16:09.429Z,3.60
2018-05-08T10:18:35.789Z,3.30
2018-05-08T10:21:02.882Z,3.57
2018-05-08T10:23:29.187Z,3.70
2018-05-08T10:25:55.546Z,3.10
2018-05-08T10:28:21.856Z,3.47
2018-05-08T10:30:48.228Z,3.27
2018-05-08T10:33:14.537Z,3.30
2018-05-08T10:35:40.832Z,2.90
2018-05-08T10:38:07.919Z,3.10
2018-05-08T10:40:34.246Z,2.77
2018-05-08T10:43:00.604Z,3.43
2018-05-08T10:45:27.674Z,3.23
2018-05-08T10:47:54.730Z,2.60
2018-05-08T10:50:21.825Z,3.27
2018-05-08T10:52:48.129Z,3.50
2018-05-08T10:55:14.476Z,2.70
2018-05-08T10:57:40.846Z,2.53
2018-05-08T11:00:08.175Z,2.50
2018-05-08T11:02:35.317Z,2.80
2018-05-08T11:05:01.625Z,3.23
2018-05-08T11:07:27.996Z,2.80
2018-05-08T11:09:54.306Z,2.80
2018-05-08T11:12:20.716Z,2.77
2018-05-08T11:14:47.076Z,2.97
2018-05-08T11:17:13.384Z,2.93
2018-05-08T11:19:39.829Z,2.73
2018-05-08T11:22:06.114Z,3.03
2018-05-08T11:24:33.206Z,2.73
2018-05-08T11:26:59.505Z,2.57
2018-05-08T11:29:25.865Z,3.17
2018-05-08T11:31:52.162Z,3.17
2018-05-08T11:34:18.465Z,3.10
2018-05-08T11:36:44.826Z,3.00
2018-05-08T11:39:11.211Z,2.70
2018-05-08T11:41:37.452Z,2.87
2018-05-08T11:44:04.547Z,3.10
2018-05-08T11:46:30.853Z,2.90
2018-05-08T11:48:57.217Z,2.90
2018-05-08T11:51:23.518Z,3.13
2018-05-08T11:53:49.875Z,3.00
2018-05-08T11:56:16.194Z,3.57
2018-05-08T11:58:42.540Z,3.07
2018-05-08T12:01:08.851Z,3.10
2018-05-08T12:03:35.213Z,3.10
2018-05-08T12:06:02.575Z,3.37
2018-05-08T12:08:28.887Z,3.10
2018-05-08T12:10:55.230Z,3.50
2018-05-08T12:13:22.201Z,2.70
2018-05-08T12:15:49.292Z,3.43
2018-05-08T12:18:15.674Z,3.40
2018-05-08T12:20:41.984Z,3.30
2018-05-08T12:23:08.306Z,3.30
2018-05-08T12:25:34.646Z,2.60
2018-05-08T12:28:00.978Z,3.60
2018-05-08T12:30:27.350Z,2.50
2018-05-08T12:32:53.659Z,3.33
2018-05-08T12:35:19.991Z,3.10
2018-05-08T12:37:46.342Z,3.43
2018-05-08T12:40:13.445Z,2.83
2018-05-08T12:42:41.302Z,3.00
2018-05-08T12:45:07.609Z,2.73
2018-05-08T12:47:33.986Z,2.87
2018-05-08T12:50:00.910Z,3.13
2018-05-08T12:52:27.228Z,2.50
2018-05-08T12:54:53.609Z,2.30
2018-05-08T12:57:20.646Z,3.37
2018-05-08T12:59:47.507Z,2.70
2018-05-08T13:02:14.623Z,2.70
2018-05-08T13:04:40.930Z,2.90
2018-05-08T13:07:07.310Z,3.20
2018-05-08T13:09:34.357Z,3.30
2018-05-08T13:12:01.453Z,3.20
2018-05-08T13:14:27.809Z,2.97
2018-05-08T13:16:54.126Z,2.60
2018-05-08T13:19:20.454Z,3.10
2018-05-08T13:21:46.831Z,2.50
2018-05-08T13:24:13.940Z,2.70
2018-05-08T13:26:40.203Z,3.13
2018-05-08T13:29:07.296Z,2.90
2018-05-08T13:31:33.605Z,2.97
2018-05-08T13:34:00.001Z,2.67
2018-05-08T13:36:26.345Z,2.80
2018-05-08T13:38:53.383Z,2.33
2018-05-08T13:41:19.714Z,2.67
2018-05-08T13:43:46.764Z,2.90
2018-05-08T13:46:13.157Z,2.60
2018-05-08T13:48:39.458Z,1.87
2018-05-08T13:51:05.822Z,2.40
2018-05-08T13:53:32.159Z,2.60
2018-05-08T13:55:58.457Z,2.83
2018-05-08T13:58:24.813Z,2.50
2018-05-08T14:00:51.261Z,2.00
2018-05-08T14:03:17.562Z,2.17
2018-05-08T14:05:43.874Z,2.23
2018-05-08T14:08:10.245Z,2.40
2018-05-08T14:10:36.545Z,2.20
2018-05-08T14:13:02.912Z,2.47
2018-05-08T14:15:29.254Z,2.20
2018-05-08T14:17:55.548Z,2.00
2018-05-08T14:20:22.082Z,2.50
2018-05-08T14:22:48.403Z,2.60
2018-05-08T14:25:14.725Z,2.43
2018-05-08T14:27:41.074Z,1.90
2018-05-08T14:30:08.056Z,2.23
2018-05-08T14:32:35.159Z,2.30
2018-05-08T14:35:01.475Z,2.00
2018-05-08T14:37:27.824Z,2.40
2018-05-08T14:39:54.996Z,2.40
2018-05-08T14:42:21.358Z,2.50
2018-05-08T14:44:47.673Z,1.80
2018-05-08T14:47:17.085Z,2.10
2018-05-08T14:49:44.121Z,1.93
2018-05-08T14:52:11.229Z,1.80
2018-05-08T14:54:37.533Z,1.60
2018-05-08T14:57:03.892Z,1.80
2018-05-08T14:59:30.266Z,1.70
2018-05-08T15:01:57.324Z,2.07
2018-05-08T15:04:24.466Z,1.77
2018-05-08T15:06:50.764Z,1.80
2018-05-08T15:09:18.609Z,1.73
2018-05-08T15:11:45.015Z,1.67
2018-05-08T15:14:13.323Z,1.70
2018-05-08T15:16:39.630Z,1.70
2018-05-08T15:19:05.971Z,1.65
2018-05-08T15:21:32.317Z,1.70
2018-05-08T15:23:58.674Z,1.75
2018-05-08T15:26:25.038Z,2.05
2018-05-08T15:28:51.359Z,1.65
2018-05-08T15:31:18.399Z,1.58
2018-05-08T15:33:45.500Z,1.42
2018-05-08T15:36:11.831Z,1.83
2018-05-08T15:38:38.201Z,1.45
2018-05-08T15:41:05.363Z,1.75
2018-05-08T15:43:31.649Z,1.40
2018-05-08T15:45:57.951Z,1.80
2018-05-08T15:48:24.310Z,1.40
2018-05-08T15:50:50.625Z,1.42
2018-05-08T15:53:16.961Z,1.83
2018-05-08T15:55:43.321Z,1.70
2018-05-08T15:58:09.642Z,2.03
2018-05-08T16:00:36.745Z,1.92
2018-05-08T16:03:03.066Z,1.73
2018-05-08T16:05:29.408Z,1.70
2018-05-08T16:07:55.752Z,1.77
2018-05-08T16:10:22.117Z,1.85
2018-05-08T16:12:49.243Z,1.65
2018-05-08T16:15:15.583Z,1.70
2018-05-08T16:17:41.938Z,1.60
2018-05-08T16:20:08.327Z,1.67
2018-05-08T16:22:34.625Z,1.70
2018-05-08T16:25:00.978Z,1.67
2018-05-08T16:27:27.270Z,1.60
2018-05-08T16:29:53.675Z,1.60
2018-05-08T16:32:20.057Z,1.90
2018-05-08T16:34:46.417Z,1.90
2018-05-08T16:37:12.753Z,2.60
2018-05-08T16:39:39.814Z,1.85
2018-05-08T16:42:06.925Z,1.75
2018-05-08T16:44:33.290Z,1.52
2018-05-08T16:46:59.594Z,2.42
2018-05-08T16:49:25.953Z,2.15
2018-05-08T16:51:53.053Z,2.00
2018-05-08T16:54:19.359Z,1.95
2018-05-08T16:56:45.718Z,2.08
2018-05-08T16:59:12.131Z,1.80
2018-05-08T17:01:38.417Z,1.90
2018-05-08T17:04:04.861Z,2.08
2018-05-08T17:06:31.235Z,2.40
2018-05-08T17:08:58.890Z,1.70
2018-05-08T17:11:25.357Z,2.05
2018-05-08T17:13:52.608Z,2.00
2018-05-08T17:16:19.701Z,1.87
2018-05-08T17:18:47.127Z,1.50
2018-05-08T17:21:13.603Z,2.00
2018-05-08T17:23:40.009Z,2.08
2018-05-08T17:26:06.457Z,1.40
2018-05-08T17:28:32.782Z,1.80
2018-05-08T17:30:59.917Z,1.80
2018-05-08T17:33:26.272Z,1.90
2018-05-08T17:35:53.302Z,1.97
2018-05-08T17:38:19.714Z,1.80
2018-05-08T17:40:46.037Z,1.73
2018-05-08T17:43:12.475Z,1.80
2018-05-08T17:45:38.934Z,2.17
2018-05-08T17:48:05.391Z,2.40
2018-05-08T17:50:31.711Z,1.57
2018-05-08T17:52:58.138Z,1.80
2018-05-08T17:55:24.501Z,1.83
2018-05-08T17:57:50.800Z,2.17
2018-05-08T18:00:17.904Z,1.67
2018-05-08T18:02:44.331Z,1.80
2018-05-08T18:05:10.749Z,1.73
2018-05-08T18:07:37.087Z,2.10
2018-05-08T18:10:03.475Z,1.80
2018-05-08T18:12:31.017Z,2.10
2018-05-08T18:14:57.392Z,1.93
2018-05-08T18:17:28.345Z,1.97
2018-05-08T18:19:54.795Z,2.10
2018-05-08T18:22:21.862Z,2.13
2018-05-08T18:24:49.080Z,2.40
2018-05-08T18:27:15.461Z,2.33
2018-05-08T18:29:41.782Z,1.93
2018-05-08T18:32:09.007Z,2.90
2018-05-08T18:34:36.260Z,2.20
2018-05-08T18:37:02.775Z,2.30
2018-05-08T18:39:29.316Z,2.00
2018-05-08T18:41:55.643Z,2.53
2018-05-08T18:44:22.782Z,2.33
2018-05-08T18:46:49.093Z,2.20
2018-05-08T18:49:15.414Z,2.20
2018-05-08T18:51:41.774Z,2.27
2018-05-08T18:54:08.119Z,2.80
2018-05-08T18:56:34.416Z,3.07
2018-05-08T18:59:00.839Z,2.33
2018-05-08T19:01:27.220Z,2.50
2018-05-08T19:03:53.561Z,2.40
2018-05-08T19:06:20.803Z,2.30
2018-05-08T19:08:47.933Z,2.67
2018-05-08T19:11:20.496Z,2.37
2018-05-08T19:13:46.881Z,3.00
2018-05-08T19:16:14.871Z,2.57
2018-05-08T19:18:47.821Z,2.50
2018-05-08T19:21:14.173Z,3.00
2018-05-08T19:23:46.729Z,2.93
2018-05-08T19:26:13.821Z,2.77
2018-05-08T19:28:46.255Z,2.90
2018-05-08T19:31:12.572Z,3.53
2018-05-08T19:33:39.666Z,3.37
2018-05-08T19:36:13.263Z,3.20
2018-05-08T19:38:39.674Z,3.50
2018-05-08T19:41:06.725Z,3.13
2018-05-08T19:43:33.803Z,3.33
2018-05-08T19:46:00.109Z,3.20
2018-05-08T19:48:27.158Z,2.70
2018-05-08T19:50:53.468Z,3.30
2018-05-08T19:53:20.558Z,3.00
2018-05-08T19:55:46.884Z,2.80
2018-05-08T19:58:13.210Z,2.80
2018-05-08T20:00:39.525Z,2.90
2018-05-08T20:03:06.734Z,3.00
2018-05-08T20:05:33.074Z,2.60
2018-05-08T20:07:59.966Z,3.03
2018-05-08T20:10:26.294Z,3.20
2018-05-08T20:12:52.626Z,2.80
2018-05-08T20:15:18.936Z,3.90
2018-05-08T20:17:45.978Z,2.60
2018-05-08T20:20:13.050Z,2.83
2018-05-08T20:22:39.378Z,2.77
2018-05-08T20:25:05.732Z,2.60
2018-05-08T20:27:32.034Z,2.90
2018-05-08T20:29:58.382Z,2.93
2018-05-08T20:32:24.706Z,2.70
2018-05-08T20:34:51.065Z,3.17
2018-05-08T20:37:19.969Z,2.83
2018-05-08T20:42:19.382Z,3.07
2018-05-08T20:44:45.729Z,3.33
2018-05-08T20:47:12.027Z,3.17
2018-05-08T20:49:38.361Z,3.10
2018-05-08T20:52:04.674Z,3.40
2018-05-08T20:54:31.944Z,2.80
2018-05-08T20:56:59.133Z,2.60
2018-05-08T20:59:26.240Z,3.30
2018-05-08T21:01:52.547Z,3.10
2018-05-08T21:04:18.890Z,2.90
2018-05-08T21:06:45.215Z,3.00
2018-05-08T21:09:11.595Z,3.50
2018-05-08T21:11:37.936Z,3.20
2018-05-08T21:14:04.306Z,3.17
2018-05-08T21:16:30.618Z,2.90
2018-05-08T21:18:56.972Z,2.90
2018-05-08T21:21:23.325Z,3.10
2018-05-08T21:23:49.660Z,3.40
2018-05-08T21:26:17.473Z,3.30
2018-05-08T21:28:49.991Z,3.30
2018-05-08T21:31:16.323Z,3.10
2018-05-08T21:33:42.625Z,3.00
2018-05-08T21:36:08.968Z,2.80
2018-05-08T21:38:35.264Z,2.60
2018-05-08T21:41:01.593Z,3.00
2018-05-08T21:43:27.898Z,2.90
2018-05-08T21:45:54.225Z,2.67
2018-05-08T21:48:20.518Z,3.00
2018-05-08T21:50:46.862Z,3.10
2018-05-08T21:53:13.157Z,2.83
2018-05-08T21:55:39.508Z,3.30
2018-05-08T21:58:05.827Z,3.50
2018-05-08T22:00:34.227Z,3.60
2018-05-08T22:03:00.560Z,3.03
2018-05-08T22:05:26.873Z,3.23
2018-05-08T22:07:53.182Z,3.63
2018-05-08T22:10:19.524Z,2.90
2018-05-08T22:12:45.823Z,3.33
2018-05-08T22:15:12.898Z,3.13
2018-05-08T22:17:39.190Z,2.80
2018-05-08T22:20:06.269Z,2.80
2018-05-08T22:22:32.591Z,3.17
2018-05-08T22:24:58.916Z,2.83
2018-05-08T22:27:25.214Z,3.73
2018-05-08T22:29:52.282Z,2.93
2018-05-08T22:32:19.629Z,3.00
2018-05-08T22:34:46.103Z,2.80
2018-05-08T22:37:12.403Z,3.23
2018-05-08T22:39:38.755Z,2.97
2018-05-08T22:42:05.078Z,3.37
2018-05-08T22:44:31.386Z,2.90
2018-05-08T22:46:58.459Z,3.20
2018-05-08T22:49:26.834Z,3.67
2018-05-08T22:51:53.169Z,3.13
2018-05-08T22:54:19.478Z,3.27
2018-05-08T22:56:45.813Z,3.57
2018-05-08T22:59:12.112Z,3.50
2018-05-08T23:01:38.440Z,3.60
2018-05-08T23:04:04.748Z,3.40
2018-05-08T23:06:31.077Z,3.50
2018-05-08T23:08:57.395Z,3.77
2018-05-08T23:11:23.759Z,3.20
2018-05-08T23:13:50.829Z,3.70
2018-05-08T23:16:17.906Z,3.80
2018-05-08T23:18:45.091Z,3.50
2018-05-08T23:21:11.411Z,3.60
2018-05-08T23:23:37.716Z,3.67
2018-05-08T23:26:04.083Z,3.50
2018-05-08T23:28:30.395Z,3.20
2018-05-08T23:30:56.721Z,3.70
2018-05-08T23:33:23.040Z,3.63
2018-05-08T23:35:49.392Z,3.50
2018-05-08T23:38:15.700Z,3.63
2018-05-08T23:40:42.041Z,3.23
2018-05-08T23:43:08.372Z,3.20
2018-05-08T23:45:34.709Z,3.23
2018-05-08T23:48:01.017Z,3.50
2018-05-08T23:50:27.367Z,3.90
2018-05-08T23:52:53.710Z,3.30
2018-05-08T23:55:20.839Z,3.50
2018-05-08T23:57:47.192Z,3.40
